Time;durP1;ratioP1;P1;durP2;ratioP2;P2;SDS_P1;SDS_P2;PMS_P1;PMS_P2;Temp;Humidity;BMP_temperature;BMP_pressure;BME280_temperature;BME280_humidity;BME280_pressure;Samples;Min_cycle;Max_cycle;Signal;HPM_P1;HPM_P2
2022/12/20 00:01:25;;;;;;;0.85;0.85;;;;;;;;;;5016565;28;20451;-90
2022/12/20 00:03:52;;;;;;;1.75;1.67;;;;;;;;;;5013801;28;20128;-89
2022/12/20 00:06:20;;;;;;;0.68;0.68;;;;;;;;;;5019751;28;20045;-91
2022/12/20 00:08:47;;;;;;;3.28;3.03;;;;;;;;;;5019812;28;20049;-88
2022/12/20 00:11:14;;;;;;;1.92;1.83;;;;;;;;;;5019929;28;20049;-90
2022/12/20 00:13:41;;;;;;;0.60;0.60;;;;;;;;;;5019688;28;20487;-90
2022/12/20 00:16:09;;;;;;;2.08;1.95;;;;;;;;;;5031388;28;20398;-90
2022/12/20 00:18:36;;;;;;;1.30;1.30;;;;;;;;;;5039562;28;20046;-89
2022/12/20 00:21:03;;;;;;;1.83;1.73;;;;;;;;;;5039351;28;20049;-89
2022/12/20 00:23:29;;;;;;;2.97;2.35;;;;;;;;;;5038894;28;20498;-89
2022/12/20 00:26:00;;;;;;;2.88;2.78;;;;;;;;;;5039073;28;20124;-88
2022/12/20 00:28:28;;;;;;;2.95;2.42;;;;;;;;;;5038872;28;20045;-89
2022/12/20 00:30:54;;;;;;;3.03;2.55;;;;;;;;;;5039273;28;20096;-89
2022/12/20 00:33:21;;;;;;;2.45;2.35;;;;;;;;;;5018938;28;20046;-89
2022/12/20 00:35:47;;;;;;;2.38;2.05;;;;;;;;;;5019409;28;20498;-90
2022/12/20 00:38:14;;;;;;;1.35;1.30;;;;;;;;;;5019426;28;20054;-91
2022/12/20 00:40:40;;;;;;;2.35;2.13;;;;;;;;;;5019461;28;20050;-89
2022/12/20 00:43:07;;;;;;;2.28;2.17;;;;;;;;;;5019255;28;20454;-89
2022/12/20 00:45:35;;;;;;;2.05;1.95;;;;;;;;;;5019399;28;20045;-89
2022/12/20 00:48:01;;;;;;;3.05;2.85;;;;;;;;;;5028918;28;20396;-90
2022/12/20 00:50:28;;;;;;;4.30;1.88;;;;;;;;;;5039250;28;20041;-90
2022/12/20 00:52:55;;;;;;;1.50;1.45;;;;;;;;;;5039208;28;20132;-90
2022/12/20 00:55:21;;;;;;;1.75;1.67;;;;;;;;;;5039710;28;20053;-91
2022/12/20 00:57:47;;;;;;;2.72;2.53;;;;;;;;;;5059478;28;20045;-90
2022/12/20 01:00:14;;;;;;;0.68;0.68;;;;;;;;;;5040779;28;20191;-90
2022/12/20 01:02:42;;;;;;;1.20;1.10;;;;;;;;;;5039317;28;20049;-90
2022/12/20 01:05:09;;;;;;;1.60;1.25;;;;;;;;;;5038900;28;20423;-90
2022/12/20 01:07:35;;;;;;;2.28;2.15;;;;;;;;;;5039194;28;20049;-90
2022/12/20 01:10:02;;;;;;;2.20;1.95;;;;;;;;;;5039037;28;20045;-90
2022/12/20 01:12:28;;;;;;;2.58;2.38;;;;;;;;;;5038964;28;20491;-89
2022/12/20 01:14:55;;;;;;;1.30;1.20;;;;;;;;;;5038823;28;20062;-89
2022/12/20 01:17:21;;;;;;;2.03;1.83;;;;;;;;;;5035386;28;20051;-90
2022/12/20 01:19:49;;;;;;;2.75;2.55;;;;;;;;;;5035714;28;20057;-89
2022/12/20 01:22:15;;;;;;;0.88;0.88;;;;;;;;;;5035985;28;20045;-89
2022/12/20 01:24:42;;;;;;;1.58;1.48;;;;;;;;;;5035257;28;20128;-88
2022/12/20 01:27:08;;;;;;;1.48;1.38;;;;;;;;;;5035362;28;20136;-89
2022/12/20 01:29:35;;;;;;;0.63;0.63;;;;;;;;;;5035240;28;20562;-89
2022/12/20 01:32:01;;;;;;;0.68;0.68;;;;;;;;;;5035716;28;20046;-89
2022/12/20 01:34:28;;;;;;;1.35;1.35;;;;;;;;;;5035408;28;20049;-89
2022/12/20 01:36:56;;;;;;;3.55;2.80;;;;;;;;;;5035528;28;20419;-89
2022/12/20 01:39:22;;;;;;;0.88;0.77;;;;;;;;;;5017490;28;20045;-89
2022/12/20 01:41:49;;;;;;;1.73;1.63;;;;;;;;;;5015801;28;20081;-89
2022/12/20 01:44:34;;;;;;;2.78;2.58;;;;;;;;;;5015529;28;20049;-90
2022/12/20 01:47:01;;;;;;;0.95;0.95;;;;;;;;;;5015799;28;20104;-90
2022/12/20 01:49:29;;;;;;;0.45;0.45;;;;;;;;;;5015241;28;20103;-90
2022/12/20 01:51:58;;;;;;;0.75;0.73;;;;;;;;;;5015276;28;20102;-89
2022/12/20 01:54:27;;;;;;;0.47;0.47;;;;;;;;;;5015062;28;20100;-89
2022/12/20 01:56:57;;;;;;;1.10;0.98;;;;;;;;;;5034819;28;20053;-88
2022/12/20 01:59:24;;;;;;;1.80;1.70;;;;;;;;;;5034790;28;20483;-88
2022/12/20 02:01:51;;;;;;;1.27;1.17;;;;;;;;;;5035050;28;20111;-88
2022/12/20 02:04:17;;;;;;;1.85;1.73;;;;;;;;;;5034630;28;20045;-88
2022/12/20 02:06:44;;;;;;;1.23;1.23;;;;;;;;;;5034666;28;20593;-88
2022/12/20 02:09:12;;;;;;;0.75;0.75;;;;;;;;;;5034697;28;20123;-89
2022/12/20 02:11:47;;;;;;;0.75;0.75;;;;;;;;;;5032276;28;20053;-88
2022/12/20 02:14:19;;;;;;;1.48;1.42;;;;;;;;;;5015034;28;20112;-89
2022/12/20 02:16:49;;;;;;;0.82;0.82;;;;;;;;;;5014850;28;20491;-88
2022/12/20 02:19:25;;;;;;;0.75;0.75;;;;;;;;;;5014814;28;20050;-88
2022/12/20 02:21:53;;;;;;;0.68;0.68;;;;;;;;;;5015025;28;20123;-88
2022/12/20 02:24:46;;;;;;;2.10;1.90;;;;;;;;;;5014322;28;20049;-88
2022/12/20 02:27:34;;;;;;;1.92;1.80;;;;;;;;;;4973350;28;20047;-88
2022/12/20 02:30:03;;;;;;;0.75;0.75;;;;;;;;;;4972950;28;20137;-88
2022/12/20 02:32:33;;;;;;;1.52;1.45;;;;;;;;;;4973291;28;20046;-88
2022/12/20 02:34:59;;;;;;;2.45;2.05;;;;;;;;;;4972997;28;20129;-88
2022/12/20 02:37:26;;;;;;;0.95;0.95;;;;;;;;;;4973053;28;20587;-88
2022/12/20 02:39:52;;;;;;;1.08;1.08;;;;;;;;;;4973243;28;20050;-88
2022/12/20 02:42:21;;;;;;;0.65;0.63;;;;;;;;;;4973027;28;20425;-88
2022/12/20 02:47:36;;;;;;;2.03;1.38;;;;;;;;;;4972839;28;20061;-88
2022/12/20 02:50:04;;;;;;;0.40;0.40;;;;;;;;;;4972762;28;20047;-88
2022/12/20 02:52:31;;;;;;;3.75;1.60;;;;;;;;;;4973030;28;20102;-88
2022/12/20 02:54:58;;;;;;;1.15;1.10;;;;;;;;;;4972530;28;20424;-88
2022/12/20 02:57:27;;;;;;;0.95;0.95;;;;;;;;;;4972748;28;20109;-88
2022/12/20 02:59:57;;;;;;;2.33;1.13;;;;;;;;;;4972816;28;20456;-88
2022/12/20 03:02:24;;;;;;;1.90;1.80;;;;;;;;;;4982338;28;20499;-88
2022/12/20 03:04:54;;;;;;;0.65;0.65;;;;;;;;;;5013800;28;20058;-88
2022/12/20 03:07:21;;;;;;;0.57;0.57;;;;;;;;;;5013743;28;20056;-88
2022/12/20 03:09:47;;;;;;;1.92;1.83;;;;;;;;;;5013511;28;20046;-88
2022/12/20 03:12:14;;;;;;;1.00;0.98;;;;;;;;;;5013779;28;20050;-88
2022/12/20 03:14:41;;;;;;;0.93;0.93;;;;;;;;;;5014000;28;20404;-88
2022/12/20 03:17:08;;;;;;;0.75;0.75;;;;;;;;;;5013762;28;20054;-89
2022/12/20 03:19:34;;;;;;;0.82;0.82;;;;;;;;;;5013613;28;20046;-88
2022/12/20 03:22:02;;;;;;;3.53;2.78;;;;;;;;;;5013475;28;20108;-88
2022/12/20 03:24:29;;;;;;;0.95;0.85;;;;;;;;;;5013522;28;20046;-88
2022/12/20 03:26:55;;;;;;;1.30;1.15;;;;;;;;;;5013707;28;20053;-88
2022/12/20 03:29:22;;;;;;;2.08;2.00;;;;;;;;;;5013191;28;20070;-88
2022/12/20 03:31:48;;;;;;;1.88;1.77;;;;;;;;;;5013141;28;20568;-88
2022/12/20 03:34:15;;;;;;;1.45;1.23;;;;;;;;;;5013324;28;20104;-88
2022/12/20 03:36:41;;;;;;;0.75;0.75;;;;;;;;;;5013576;28;20128;-88
2022/12/20 03:39:09;;;;;;;1.50;1.40;;;;;;;;;;5012802;28;20088;-89
2022/12/20 03:41:35;;;;;;;0.90;0.90;;;;;;;;;;5013462;28;20119;-88
2022/12/20 03:44:02;;;;;;;0.77;0.77;;;;;;;;;;5013175;28;20054;-88
2022/12/20 03:46:28;;;;;;;1.67;1.25;;;;;;;;;;5013159;28;20046;-88
2022/12/20 03:48:55;;;;;;;2.00;1.95;;;;;;;;;;5014899;28;20096;-88
2022/12/20 03:51:21;;;;;;;1.20;1.20;;;;;;;;;;5014066;28;20104;-88
2022/12/20 03:53:48;;;;;;;1.15;1.13;;;;;;;;;;5014292;28;20046;-89
2022/12/20 03:56:16;;;;;;;4.38;3.47;;;;;;;;;;5013503;28;20057;-88
2022/12/20 03:58:42;;;;;;;1.65;1.55;;;;;;;;;;5013217;28;20053;-88
2022/12/20 04:01:19;;;;;;;0.85;0.82;;;;;;;;;;5012998;28;20073;-88
2022/12/20 04:03:45;;;;;;;1.58;1.48;;;;;;;;;;5012787;28;20542;-87
2022/12/20 04:06:12;;;;;;;3.13;2.92;;;;;;;;;;5013115;28;20049;-87
2022/12/20 04:08:38;;;;;;;1.10;1.10;;;;;;;;;;5012859;28;20045;-87
2022/12/20 04:11:17;;;;;;;0.75;0.75;;;;;;;;;;5012943;28;20488;-87
2022/12/20 04:13:45;;;;;;;1.48;1.38;;;;;;;;;;5012849;28;20801;-87
2022/12/20 04:16:12;;;;;;;0.98;0.80;;;;;;;;;;5012995;28;20054;-87
2022/12/20 04:18:39;;;;;;;2.10;2.00;;;;;;;;;;5012702;28;20500;-87
2022/12/20 04:21:06;;;;;;;1.10;1.02;;;;;;;;;;5012858;28;20096;-87
2022/12/20 04:23:32;;;;;;;0.82;0.82;;;;;;;;;;5012883;28;20499;-87
2022/12/20 04:25:59;;;;;;;0.45;0.45;;;;;;;;;;5013087;28;20050;-88
2022/12/20 04:28:25;;;;;;;0.52;0.52;;;;;;;;;;5012601;28;20050;-87
2022/12/20 04:30:53;;;;;;;2.83;0.63;;;;;;;;;;5012956;28;20042;-87
2022/12/20 04:33:20;;;;;;;1.08;1.08;;;;;;;;;;5012773;28;20054;-87
2022/12/20 04:35:46;;;;;;;0.77;0.77;;;;;;;;;;5012496;28;20470;-87
2022/12/20 04:38:13;;;;;;;1.17;1.17;;;;;;;;;;5012940;28;20066;-87
2022/12/20 04:40:39;;;;;;;1.50;1.48;;;;;;;;;;5012537;28;20046;-87
2022/12/20 04:43:06;;;;;;;1.02;0.98;;;;;;;;;;5012677;28;20069;-87
2022/12/20 04:45:33;;;;;;;2.83;2.70;;;;;;;;;;5012305;28;20042;-87
2022/12/20 04:48:01;;;;;;;1.23;1.23;;;;;;;;;;5012534;28;20050;-87
2022/12/20 04:50:27;;;;;;;1.40;1.40;;;;;;;;;;5012500;28;20096;-87
2022/12/20 04:55:38;;;;;;;0.75;0.75;;;;;;;;;;5016241;28;20052;-86
2022/12/20 04:58:04;;;;;;;2.83;2.60;;;;;;;;;;5016216;28;20128;-89
2022/12/20 05:00:31;;;;;;;1.70;1.60;;;;;;;;;;5035722;28;20053;-89
2022/12/20 05:02:57;;;;;;;1.45;1.35;;;;;;;;;;5036124;28;20049;-89
2022/12/20 05:05:25;;;;;;;2.35;2.15;;;;;;;;;;5035773;28;20103;-89
2022/12/20 05:07:52;;;;;;;1.10;1.10;;;;;;;;;;5036355;28;20049;-90
2022/12/20 05:10:19;;;;;;;4.53;4.30;;;;;;;;;;5035875;28;20103;-90
2022/12/20 05:12:45;;;;;;;1.95;1.83;;;;;;;;;;5035648;28;20053;-89
2022/12/20 05:15:12;;;;;;;2.40;2.30;;;;;;;;;;5035834;28;20115;-90
2022/12/20 05:17:38;;;;;;;1.17;1.17;;;;;;;;;;5035970;28;20096;-89
2022/12/20 05:20:06;;;;;;;1.27;1.25;;;;;;;;;;5035635;28;20046;-89
2022/12/20 05:28:01;;;;;;;0.75;0.75;;;;;;;;;;5034481;28;20056;-89
2022/12/20 05:30:28;;;;;;;1.23;1.23;;;;;;;;;;5035393;28;20049;-89
2022/12/20 05:32:55;;;;;;;1.77;1.73;;;;;;;;;;5035627;28;20486;-90
2022/12/20 05:35:22;;;;;;;1.38;1.38;;;;;;;;;;5035791;28;20132;-90
2022/12/20 05:37:49;;;;;;;2.50;2.40;;;;;;;;;;5035045;28;20062;-89
2022/12/20 05:40:16;;;;;;;3.75;1.58;;;;;;;;;;5035273;28;20053;-89
2022/12/20 05:42:43;;;;;;;2.30;2.20;;;;;;;;;;5035237;28;20050;-89
2022/12/20 05:45:10;;;;;;;0.98;0.95;;;;;;;;;;5034630;28;20049;-89
2022/12/20 05:47:37;;;;;;;2.35;1.65;;;;;;;;;;5035220;28;20049;-89
2022/12/20 05:50:04;;;;;;;1.65;1.55;;;;;;;;;;5034534;28;20048;-89
2022/12/20 05:52:31;;;;;;;2.97;1.88;;;;;;;;;;5034865;28;20115;-87
2022/12/20 05:54:59;;;;;;;3.67;3.38;;;;;;;;;;5034931;28;20545;-90
2022/12/20 05:57:26;;;;;;;1.30;1.27;;;;;;;;;;5034843;28;20502;-90
2022/12/20 05:59:53;;;;;;;1.05;0.63;;;;;;;;;;5035406;28;20495;-90
2022/12/20 06:02:20;;;;;;;2.17;2.08;;;;;;;;;;5032479;28;20088;-90
2022/12/20 06:04:46;;;;;;;1.85;1.75;;;;;;;;;;5015856;28;20667;-90
2022/12/20 06:07:13;;;;;;;1.80;1.70;;;;;;;;;;5015535;28;20164;-90
2022/12/20 06:09:39;;;;;;;1.55;1.45;;;;;;;;;;5015324;28;20042;-90
2022/12/20 06:12:07;;;;;;;1.10;1.00;;;;;;;;;;5015101;28;20054;-89
2022/12/20 06:14:34;;;;;;;1.13;1.13;;;;;;;;;;5015301;28;20045;-87
2022/12/20 06:17:00;;;;;;;1.90;1.80;;;;;;;;;;5015091;28;20045;-87
2022/12/20 06:19:27;;;;;;;1.63;1.58;;;;;;;;;;5030999;28;20068;-87
2022/12/20 06:21:53;;;;;;;1.45;1.30;;;;;;;;;;5034482;28;20104;-88
2022/12/20 06:24:20;;;;;;;2.28;2.17;;;;;;;;;;5047500;28;20049;-90
2022/12/20 06:26:46;;;;;;;1.90;1.85;;;;;;;;;;5054298;28;20045;-89
2022/12/20 06:29:16;;;;;;;2.70;2.60;;;;;;;;;;5048785;28;20053;-90
2022/12/20 06:31:42;;;;;;;2.13;1.95;;;;;;;;;;5036407;28;20487;-88
2022/12/20 06:34:09;;;;;;;5.13;3.10;;;;;;;;;;5028711;28;20411;-87
2022/12/20 06:36:35;;;;;;;1.73;1.67;;;;;;;;;;5013387;28;20050;-90
2022/12/20 06:39:02;;;;;;;4.13;3.25;;;;;;;;;;5013623;28;20058;-87
2022/12/20 06:41:28;;;;;;;1.70;1.58;;;;;;;;;;5027518;28;20049;-88
2022/12/20 06:43:55;;;;;;;1.45;1.40;;;;;;;;;;5033238;28;20414;-89
2022/12/20 06:46:23;;;;;;;1.63;1.52;;;;;;;;;;5033286;28;20103;-89
2022/12/20 06:48:49;;;;;;;1.25;1.23;;;;;;;;;;5033631;28;20049;-89
2022/12/20 06:51:16;;;;;;;1.00;0.98;;;;;;;;;;5032069;28;20068;-89
2022/12/20 06:53:42;;;;;;;2.10;2.00;;;;;;;;;;5033453;28;20136;-89
2022/12/20 06:56:09;;;;;;;0.85;0.85;;;;;;;;;;5033382;28;20045;-87
2022/12/20 06:58:35;;;;;;;1.13;1.10;;;;;;;;;;5033583;28;20095;-87
2022/12/20 07:01:02;;;;;;;2.50;2.38;;;;;;;;;;5027175;28;20053;-87
2022/12/20 07:03:30;;;;;;;5.20;4.82;;;;;;;;;;5033869;28;20049;-88
2022/12/20 07:05:56;;;;;;;1.80;1.08;;;;;;;;;;5025787;28;20566;-88
2022/12/20 07:08:23;;;;;;;1.08;1.02;;;;;;;;;;5013625;28;20061;-88
2022/12/20 07:10:51;;;;;;;2.75;1.90;;;;;;;;;;5013336;28;20483;-88
2022/12/20 07:13:18;;;;;;;1.52;1.45;;;;;;;;;;5013739;28;20062;-89
2022/12/20 07:15:44;;;;;;;1.73;1.65;;;;;;;;;;5012668;28;20562;-88
2022/12/20 07:18:11;;;;;;;1.63;1.52;;;;;;;;;;5013945;28;20160;-88
2022/12/20 07:20:39;;;;;;;1.63;1.52;;;;;;;;;;5028330;28;20454;-88
2022/12/20 07:23:06;;;;;;;2.58;2.45;;;;;;;;;;5043897;28;20045;-88
2022/12/20 07:25:32;;;;;;;1.08;1.08;;;;;;;;;;5027535;28;20203;-88
2022/12/20 07:27:59;;;;;;;1.65;1.55;;;;;;;;;;5031846;28;20065;-88
2022/12/20 07:30:25;;;;;;;1.73;1.63;;;;;;;;;;5027941;28;20096;-88
2022/12/20 07:32:52;;;;;;;3.55;3.25;;;;;;;;;;5013443;28;20062;-88
2022/12/20 07:35:18;;;;;;;2.83;2.63;;;;;;;;;;5013332;28;20077;-89
2022/12/20 07:37:46;;;;;;;3.20;3.00;;;;;;;;;;5013425;28;20097;-89
2022/12/20 07:40:13;;;;;;;1.38;1.33;;;;;;;;;;5013632;28;20057;-89
2022/12/20 07:42:40;;;;;;;2.33;2.22;;;;;;;;;;5014876;28;20128;-89
2022/12/20 07:45:07;;;;;;;0.90;0.90;;;;;;;;;;5013660;28;20128;-89
2022/12/20 07:47:34;;;;;;;3.17;2.25;;;;;;;;;;5013504;28;20050;-89
2022/12/20 07:50:01;;;;;;;3.00;2.90;;;;;;;;;;5013497;28;20050;-89
2022/12/20 07:52:29;;;;;;;3.42;3.08;;;;;;;;;;5013481;28;20045;-89
2022/12/20 07:54:58;;;;;;;1.50;1.40;;;;;;;;;;5013672;28;20053;-91
2022/12/20 07:57:27;;;;;;;1.50;1.40;;;;;;;;;;5013549;28;20450;-89
2022/12/20 07:59:55;;;;;;;3.35;3.15;;;;;;;;;;5013681;28;20061;-89
2022/12/20 08:02:23;;;;;;;4.40;4.20;;;;;;;;;;5013947;28;20088;-90
2022/12/20 08:04:50;;;;;;;2.63;2.35;;;;;;;;;;5013806;28;20108;-89
2022/12/20 08:07:17;;;;;;;1.98;1.88;;;;;;;;;;5013739;28;20050;-90
2022/12/20 08:09:44;;;;;;;1.00;1.00;;;;;;;;;;5013150;28;20093;-89
2022/12/20 08:12:13;;;;;;;1.45;1.40;;;;;;;;;;5013393;28;20045;-90
2022/12/20 08:14:40;;;;;;;2.67;2.47;;;;;;;;;;5013063;28;20050;-89
2022/12/20 08:17:07;;;;;;;2.58;2.47;;;;;;;;;;5021760;28;20560;-89
2022/12/20 08:19:33;;;;;;;2.45;2.35;;;;;;;;;;5035464;28;20101;-90
2022/12/20 08:22:01;;;;;;;4.65;4.00;;;;;;;;;;5031570;28;20057;-90
2022/12/20 08:24:27;;;;;;;1.20;1.15;;;;;;;;;;5033376;28;20045;-87
2022/12/20 08:26:54;;;;;;;2.75;2.53;;;;;;;;;;5035799;28;20045;-91
2022/12/20 08:29:22;;;;;;;5.72;5.32;;;;;;;;;;5037011;28;20103;-90
2022/12/20 08:31:48;;;;;;;2.15;2.05;;;;;;;;;;5039481;28;20095;-90
2022/12/20 08:34:15;;;;;;;2.47;2.33;;;;;;;;;;5048725;28;20049;-89
2022/12/20 08:36:42;;;;;;;2.65;2.50;;;;;;;;;;5026200;28;20045;-89
2022/12/20 08:39:10;;;;;;;3.00;2.83;;;;;;;;;;5016897;28;20462;-89
2022/12/20 08:41:36;;;;;;;8.63;3.20;;;;;;;;;;5016606;28;20046;-88
2022/12/20 08:44:03;;;;;;;2.08;1.98;;;;;;;;;;5016519;28;20131;-88
2022/12/20 08:46:31;;;;;;;3.63;3.33;;;;;;;;;;5016427;28;20054;-88
2022/12/20 08:48:57;;;;;;;4.80;4.55;;;;;;;;;;5021725;28;20099;-87
2022/12/20 08:51:24;;;;;;;4.13;2.70;;;;;;;;;;5035839;28;20107;-88
2022/12/20 08:53:52;;;;;;;3.60;3.20;;;;;;;;;;5035871;28;20049;-89
2022/12/20 08:56:18;;;;;;;2.55;2.38;;;;;;;;;;5035970;28;20046;-89
2022/12/20 08:58:45;;;;;;;2.40;2.30;;;;;;;;;;5035625;28;20049;-90
2022/12/20 09:01:13;;;;;;;3.28;3.05;;;;;;;;;;5045902;28;20037;-91
2022/12/20 09:03:42;;;;;;;3.75;3.10;;;;;;;;;;5056097;28;20084;-90
2022/12/20 09:06:09;;;;;;;1.40;1.35;;;;;;;;;;5055902;28;20053;-90
2022/12/20 09:08:36;;;;;;;3.25;3.10;;;;;;;;;;5039753;28;20053;-90
2022/12/20 09:11:04;;;;;;;2.80;2.63;;;;;;;;;;5035863;28;20061;-89
2022/12/20 09:13:30;;;;;;;3.85;3.60;;;;;;;;;;5027535;28;20046;-89
2022/12/20 09:15:59;;;;;;;4.43;4.22;;;;;;;;;;5015609;28;20053;-88
2022/12/20 09:18:26;;;;;;;3.58;3.38;;;;;;;;;;5022994;28;20041;-89
2022/12/20 09:20:54;;;;;;;2.25;2.15;;;;;;;;;;5055423;28;20482;-89
2022/12/20 09:23:20;;;;;;;4.28;3.58;;;;;;;;;;5055580;28;20414;-89
2022/12/20 09:25:47;;;;;;;2.10;2.00;;;;;;;;;;5055188;28;20106;-89
2022/12/20 09:28:13;;;;;;;2.45;2.30;;;;;;;;;;5035426;28;20469;-89
2022/12/20 09:30:40;;;;;;;4.43;2.60;;;;;;;;;;5035530;28;20054;-89
2022/12/20 09:33:06;;;;;;;4.07;3.78;;;;;;;;;;5035059;28;20549;-90
2022/12/20 09:35:33;;;;;;;10.20;4.05;;;;;;;;;;5035182;28;20057;-89
2022/12/20 09:38:01;;;;;;;2.55;2.45;;;;;;;;;;5049456;28;20059;-89
2022/12/20 09:40:31;;;;;;;5.28;4.88;;;;;;;;;;5055017;28;20053;-89
2022/12/20 09:42:58;;;;;;;3.13;2.92;;;;;;;;;;5054591;28;20410;-89
2022/12/20 09:45:26;;;;;;;5.07;3.33;;;;;;;;;;5054192;28;20103;-89
2022/12/20 09:47:52;;;;;;;3.38;3.20;;;;;;;;;;5039421;28;20068;-89
2022/12/20 09:50:20;;;;;;;5.40;4.93;;;;;;;;;;5034922;28;20057;-89
2022/12/20 09:52:52;;;;;;;4.03;3.65;;;;;;;;;;5034782;28;20049;-86
2022/12/20 09:55:24;;;;;;;3.42;3.15;;;;;;;;;;5034582;28;20057;-87
2022/12/20 09:57:57;;;;;;;5.00;4.65;;;;;;;;;;5014554;28;20495;-86
2022/12/20 10:00:24;;;;;;;6.88;4.30;;;;;;;;;;5014156;28;20507;-87
2022/12/20 10:02:50;;;;;;;9.50;4.55;;;;;;;;;;5015041;28;20093;-87
2022/12/20 10:05:20;;;;;;;4.38;4.18;;;;;;;;;;5024950;28;20103;-87
2022/12/20 10:07:50;;;;;;;4.07;2.53;;;;;;;;;;5027320;28;20396;-88
2022/12/20 10:10:29;;;;;;;4.13;3.10;;;;;;;;;;5014593;28;20054;-87
2022/12/20 10:12:59;;;;;;;2.88;2.67;;;;;;;;;;5014786;28;20046;-87
2022/12/20 10:15:29;;;;;;;7.82;3.22;;;;;;;;;;5031800;28;20049;-87
2022/12/20 10:18:04;;;;;;;6.53;4.35;;;;;;;;;;5034021;28;20560;-87
2022/12/20 10:20:37;;;;;;;4.97;4.28;;;;;;;;;;5034015;28;20494;-87
2022/12/20 10:23:09;;;;;;;2.45;2.25;;;;;;;;;;5033945;28;20418;-88
2022/12/20 10:25:35;;;;;;;;;;;;;;;;;;5034671;28;20400;-87
2022/12/20 10:28:05;;;;;;;2.88;2.67;;;;;;;;;;5019537;28;19975;-87
2022/12/20 10:30:32;;;;;;;2.35;2.25;;;;;;;;;;5014165;28;20519;-87
2022/12/20 10:32:59;;;;;;;3.08;2.90;;;;;;;;;;5030435;28;20044;-89
2022/12/20 10:35:27;;;;;;;4.70;4.30;;;;;;;;;;5033704;28;20045;-89
2022/12/20 10:37:58;;;;;;;4.80;4.40;;;;;;;;;;5036118;28;20057;-87
2022/12/20 10:40:29;;;;;;;2.75;2.65;;;;;;;;;;5034906;28;20049;-88
2022/12/20 10:42:56;;;;;;;4.75;4.30;;;;;;;;;;5034655;28;20045;-87
2022/12/20 10:45:30;;;;;;;3.30;3.10;;;;;;;;;;5026323;28;20108;-88
2022/12/20 10:47:59;;;;;;;6.90;6.40;;;;;;;;;;5038098;28;20045;-87
2022/12/20 10:50:25;;;;;;;3.78;3.55;;;;;;;;;;5053676;28;20055;-87
2022/12/20 10:53:03;;;;;;;3.70;3.40;;;;;;;;;;5053815;28;20128;-87
2022/12/20 10:55:34;;;;;;;2.22;2.13;;;;;;;;;;5035643;28;20461;-87
2022/12/20 10:58:02;;;;;;;4.82;4.38;;;;;;;;;;5033852;28;20056;-87
2022/12/20 11:00:30;;;;;;;3.92;3.72;;;;;;;;;;5034165;28;20054;-87
2022/12/20 11:03:05;;;;;;;2.30;2.20;;;;;;;;;;5033475;28;20115;-87
2022/12/20 11:05:32;;;;;;;3.25;3.05;;;;;;;;;;5033016;28;20499;-87
2022/12/20 11:07:59;;;;;;;3.33;2.45;;;;;;;;;;5030382;28;20045;-88
2022/12/20 11:10:26;;;;;;;3.22;2.95;;;;;;;;;;5030560;28;20136;-87
2022/12/20 11:12:53;;;;;;;2.38;2.28;;;;;;;;;;5033278;28;20099;-87
2022/12/20 11:15:21;;;;;;;3.05;2.80;;;;;;;;;;5033322;28;20049;-87
2022/12/20 11:17:51;;;;;;;4.35;4.05;;;;;;;;;;5032926;28;20069;-89
2022/12/20 11:20:24;;;;;;;3.33;3.10;;;;;;;;;;5033236;28;20053;-87
2022/12/20 11:22:56;;;;;;;2.42;2.33;;;;;;;;;;5032985;28;20052;-87
2022/12/20 11:25:32;;;;;;;3.75;3.55;;;;;;;;;;5032652;28;20135;-87
2022/12/20 11:28:05;;;;;;;1.83;1.73;;;;;;;;;;5032726;28;20065;-87
2022/12/20 11:30:38;;;;;;;3.55;3.25;;;;;;;;;;5036954;28;20049;-87
2022/12/20 11:33:17;;;;;;;3.53;3.30;;;;;;;;;;5021381;28;20045;-87
2022/12/20 11:35:49;;;;;;;3.70;3.40;;;;;;;;;;5013169;28;20103;-88
2022/12/20 11:38:22;;;;;;;3.35;3.15;;;;;;;;;;5032483;28;20053;-87
2022/12/20 11:40:51;;;;;;;3.67;3.38;;;;;;;;;;5030602;28;20053;-87
2022/12/20 11:43:26;;;;;;;3.35;3.05;;;;;;;;;;5032897;28;20045;-87
2022/12/20 11:45:59;;;;;;;1.85;1.75;;;;;;;;;;5032484;28;20457;-87
2022/12/20 11:48:43;;;;;;;2.10;1.98;;;;;;;;;;5032701;28;20099;-88
2022/12/20 11:51:18;;;;;;;5.80;3.20;;;;;;;;;;5032405;28;20053;-86
2022/12/20 11:53:48;;;;;;;3.80;3.50;;;;;;;;;;5032474;28;20096;-86
2022/12/20 11:56:17;;;;;;;3.67;3.38;;;;;;;;;;5032843;28;20099;-88
2022/12/20 11:58:50;;;;;;;2.15;2.05;;;;;;;;;;5032589;28;20045;-88
2022/12/20 12:01:19;;;;;;;3.33;3.03;;;;;;;;;;5032339;28;20053;-86
2022/12/20 12:04:00;;;;;;;2.65;2.47;;;;;;;;;;5032827;28;20405;-86
2022/12/20 12:06:29;;;;;;;3.45;2.80;;;;;;;;;;5032532;28;20045;-86
2022/12/20 12:09:05;;;;;;;4.50;3.03;;;;;;;;;;5033340;28;20054;-86
2022/12/20 12:11:32;;;;;;;3.35;3.17;;;;;;;;;;5032889;28;20068;-85
2022/12/20 12:13:59;;;;;;;2.17;2.08;;;;;;;;;;5032315;28;20088;-87
2022/12/20 12:16:27;;;;;;;2.30;2.20;;;;;;;;;;5032719;28;20072;-88
2022/12/20 12:18:54;;;;;;;4.18;3.88;;;;;;;;;;5032147;28;20108;-87
2022/12/20 12:21:23;;;;;;;3.33;3.10;;;;;;;;;;5032350;28;20054;-87
2022/12/20 12:23:58;;;;;;;2.33;2.15;;;;;;;;;;5032521;28;20061;-86
2022/12/20 12:26:25;;;;;;;8.63;1.60;;;;;;;;;;5032273;28;20107;-86
2022/12/20 12:28:54;;;;;;;5.30;1.83;;;;;;;;;;5032214;28;20050;-86
2022/12/20 12:31:23;;;;;;;7.00;2.90;;;;;;;;;;5031808;28;20426;-86
2022/12/20 12:33:55;;;;;;;4.20;3.90;;;;;;;;;;5031817;28;20054;-86
2022/12/20 12:36:37;;;;;;;2.75;2.55;;;;;;;;;;5032131;28;20050;-86
2022/12/20 12:39:19;;;;;;;4.00;3.70;;;;;;;;;;5032804;28;20058;-86
2022/12/20 12:42:10;;;;;;;4.43;2.88;;;;;;;;;;5032528;28;20103;-86
2022/12/20 12:44:39;;;;;;;4.75;4.55;;;;;;;;;;5021747;28;20099;-87
2022/12/20 12:47:11;;;;;;;3.40;2.30;;;;;;;;;;5025589;28;20096;-86
2022/12/20 12:49:39;;;;;;;1.95;1.85;;;;;;;;;;5012557;28;20132;-87
2022/12/20 12:52:06;;;;;;;3.15;3.05;;;;;;;;;;5012310;28;20054;-86
2022/12/20 12:54:36;;;;;;;3.20;2.70;;;;;;;;;;5048142;28;20041;-86
2022/12/20 12:57:06;;;;;;;2.60;2.50;;;;;;;;;;5046322;28;20561;-87
2022/12/20 12:59:44;;;;;;;3.53;3.33;;;;;;;;;;5031451;28;20564;-87
2022/12/20 13:02:29;;;;;;;1.98;1.88;;;;;;;;;;5032110;28;20545;-87
2022/12/20 13:04:57;;;;;;;2.67;2.47;;;;;;;;;;5032408;28;20053;-86
2022/12/20 13:07:27;;;;;;;3.10;2.95;;;;;;;;;;5031173;28;20053;-87
2022/12/20 13:09:55;;;;;;;3.35;3.08;;;;;;;;;;5030827;28;20099;-87
2022/12/20 13:12:49;;;;;;;4.72;4.00;;;;;;;;;;5032503;28;20046;-86
2022/12/20 13:15:34;;;;;;;4.85;3.28;;;;;;;;;;5035604;28;20049;-86
2022/12/20 13:18:16;;;;;;;2.38;2.28;;;;;;;;;;5040622;28;20041;-86
2022/12/20 13:20:43;;;;;;;3.30;2.70;;;;;;;;;;5034987;28;20096;-87
2022/12/20 13:23:16;;;;;;;4.25;3.85;;;;;;;;;;5034546;28;20049;-86
2022/12/20 13:25:44;;;;;;;3.97;2.55;;;;;;;;;;5035276;28;20557;-86
2022/12/20 13:28:28;;;;;;;2.03;1.92;;;;;;;;;;5035155;28;20099;-88
2022/12/20 13:31:18;;;;;;;4.82;4.38;;;;;;;;;;5028111;28;20056;-87
2022/12/20 13:33:46;;;;;;;2.53;2.33;;;;;;;;;;5035059;28;20052;-88
2022/12/20 13:36:33;;;;;;;3.13;3.00;;;;;;;;;;5035437;28;20046;-87
2022/12/20 13:39:00;;;;;;;2.63;2.42;;;;;;;;;;5034561;28;20429;-87
2022/12/20 13:41:39;;;;;;;4.45;4.05;;;;;;;;;;5034967;28;20050;-88
2022/12/20 13:44:18;;;;;;;4.47;4.18;;;;;;;;;;5035138;28;20103;-87
2022/12/20 13:46:48;;;;;;;2.75;2.63;;;;;;;;;;5035441;28;20168;-87
2022/12/20 13:49:18;;;;;;;2.53;2.33;;;;;;;;;;5037093;28;20061;-88
2022/12/20 13:51:44;;;;;;;4.95;4.50;;;;;;;;;;5035058;28;20053;-87
2022/12/20 13:54:17;;;;;;;3.08;2.92;;;;;;;;;;5034709;28;20053;-87
2022/12/20 13:56:47;;;;;;;4.68;4.30;;;;;;;;;;5034740;28;20049;-87
2022/12/20 13:59:16;;;;;;;3.17;2.85;;;;;;;;;;5034766;28;20054;-87
2022/12/20 14:01:49;;;;;;;8.55;4.50;;;;;;;;;;5034585;28;20049;-87
2022/12/20 14:04:17;;;;;;;2.45;1.92;;;;;;;;;;5034482;28;20053;-87
2022/12/20 14:06:44;;;;;;;11.88;3.72;;;;;;;;;;5034783;28;20084;-85
2022/12/20 14:09:25;;;;;;;4.07;3.78;;;;;;;;;;5034246;28;20053;-86
2022/12/20 14:11:53;;;;;;;2.80;2.60;;;;;;;;;;5014858;28;20165;-85
2022/12/20 14:14:19;;;;;;;3.60;3.40;;;;;;;;;;5033443;28;20045;-87
2022/12/20 14:16:46;;;;;;;2.80;2.58;;;;;;;;;;5054126;28;20456;-85
2022/12/20 14:19:14;;;;;;;3.10;2.90;;;;;;;;;;5054402;28;20045;-85
2022/12/20 14:21:42;;;;;;;3.30;3.03;;;;;;;;;;5052078;28;20044;-87
2022/12/20 14:24:14;;;;;;;2.78;2.33;;;;;;;;;;5042643;28;20041;-86
2022/12/20 14:26:43;;;;;;;3.88;3.65;;;;;;;;;;5034280;28;20217;-86
2022/12/20 14:29:12;;;;;;;3.40;2.83;;;;;;;;;;5033765;28;20136;-88
2022/12/20 14:31:41;;;;;;;3.30;3.10;;;;;;;;;;5032168;28;20111;-88
2022/12/20 14:34:12;;;;;;;4.05;3.55;;;;;;;;;;5033753;28;20449;-88
2022/12/20 14:36:39;;;;;;;4.47;2.67;;;;;;;;;;5033816;28;20057;-87
2022/12/20 14:39:20;;;;;;;3.33;2.80;;;;;;;;;;5033892;28;20115;-88
2022/12/20 14:41:47;;;;;;;3.33;3.03;;;;;;;;;;5032362;28;20457;-85
2022/12/20 14:44:16;;;;;;;3.33;3.08;;;;;;;;;;5029710;28;20099;-88
2022/12/20 14:46:47;;;;;;;3.42;3.22;;;;;;;;;;5033905;28;20057;-87
2022/12/20 14:49:19;;;;;;;3.72;3.53;;;;;;;;;;5033241;28;20099;-87
2022/12/20 14:51:46;;;;;;;4.28;2.75;;;;;;;;;;5033541;28;20384;-87
2022/12/20 14:54:17;;;;;;;3.45;2.33;;;;;;;;;;5025669;28;20443;-87
2022/12/20 14:56:45;;;;;;;3.58;3.38;;;;;;;;;;5033488;28;20049;-86
2022/12/20 14:59:14;;;;;;;2.45;2.00;;;;;;;;;;5033158;28;20045;-87
2022/12/20 15:01:42;;;;;;;6.93;4.72;;;;;;;;;;5033539;28;20088;-87
2022/12/20 15:04:30;;;;;;;3.25;2.97;;;;;;;;;;5032861;28;20148;-85